Front Thor — V7SL4 — position and weather

sailwx.info

Track history (hours):
 
Tides and Currents Weather Stations Pressure Air Temp Water Temp Dewpoint Dewpoint Depression Visibility Wind Speed Wind Dir Waves Ship Positions

Front Thor

Last reported at 2017-Sep-25 05:54 UTC. Time now 2017-Sep-25 08:03 UTC.
Position N 36°07' W 005°22'.

Length 275 m; draft 9.2 m.

Type: Tanker. MMSI: 538003675.

Date/timePositionNaut miles runAvg speedWind from/ knotsBaromVisibWave heightAir tempDewpointWater temp
2017-Sep-25 05:54N 36°07' W 005°22'0 0.2
2017-Sep-25 05:27N 36°07' W 005°22'0 0.0
2017-Sep-25 05:00N 36°07' W 005°22'0 0.0
2017-Sep-25 04:30N 36°07' W 005°22'0 0.0
2017-Sep-25 02:30N 36°07' W 005°22'0 0.1
2017-Sep-25 02:00N 36°08' W 005°22'0 0.0
2017-Sep-24 23:57N 36°08' W 005°22'3 0.5
2017-Sep-24 18:00N 36°05' W 005°20'1 2.9
2017-Sep-24 17:31N 36°05' W 005°18'2 4.0
2017-Sep-24 17:00N 36°06' W 005°16'1 2.8
2017-Sep-24 16:30N 36°06' W 005°15'1 1.6
2017-Sep-24 15:57N 36°07' W 005°14'2 3.7
2017-Sep-24 15:22N 36°07' W 005°11'2 0.2
2017-Sep-24 04:08N 36°08' W 005°08'2 1.9
2017-Sep-24 03:11N 36°08' W 005°11'1 4.2
2017-Sep-24 03:00N 36°09' W 005°10'0 0.1
2017-Sep-24 01:27N 36°09' W 005°10'1 1.7
2017-Sep-24 01:00N 36°08' W 005°10'  
Track history (hours):
 
Tides and Currents Weather Stations Pressure Air Temp Water Temp Dewpoint Dewpoint Depression Visibility Wind Speed Wind Dir Waves Ship Positions

Front Thor

Last reported at 2017-Sep-25 05:54 UTC. Time now 2017-Sep-25 08:03 UTC.
Position N 36°07' W 005°22'.

Length 275 m; draft 9.2 m.

Type: Tanker. MMSI: 538003675.

Date/timePositionNaut miles runAvg speedWind from/ knotsBaromVisibWave heightAir tempDewpointWater temp
2017-Sep-25 05:54N 36°07' W 005°22'0 0.2
2017-Sep-25 05:27N 36°07' W 005°22'0 0.0
2017-Sep-25 05:00N 36°07' W 005°22'0 0.0
2017-Sep-25 04:30N 36°07' W 005°22'0 0.0
2017-Sep-25 02:30N 36°07' W 005°22'0 0.1
2017-Sep-25 02:00N 36°08' W 005°22'0 0.0
2017-Sep-24 23:57N 36°08' W 005°22'3 0.5
2017-Sep-24 18:00N 36°05' W 005°20'1 2.9
2017-Sep-24 17:31N 36°05' W 005°18'2 4.0
2017-Sep-24 17:00N 36°06' W 005°16'1 2.8
2017-Sep-24 16:30N 36°06' W 005°15'1 1.6
2017-Sep-24 15:57N 36°07' W 005°14'2 3.7
2017-Sep-24 15:22N 36°07' W 005°11'2 0.2
2017-Sep-24 04:08N 36°08' W 005°08'2 1.9
2017-Sep-24 03:11N 36°08' W 005°11'1 4.2
2017-Sep-24 03:00N 36°09' W 005°10'0 0.1
2017-Sep-24 01:27N 36°09' W 005°10'1 1.7
2017-Sep-24 01:00N 36°08' W 005°10'  

Dump ship's entire track history